createdAt,value
2023-02-22T00:01:07.715Z,97592.00
2023-02-22T00:03:35.946Z,97594.63
2023-02-22T00:06:06.152Z,97587.03
2023-02-22T00:08:37.670Z,97589.53
2023-02-22T00:11:08.695Z,97596.63
2023-02-22T00:13:37.974Z,97587.94
2023-02-22T00:16:06.953Z,97587.09
2023-02-22T00:18:35.111Z,97590.69
2023-02-22T00:21:03.381Z,97587.31
2023-02-22T00:23:32.785Z,97588.16
2023-02-22T00:26:02.377Z,97583.09
2023-02-22T00:28:30.841Z,97586.75
2023-02-22T00:30:59.988Z,97589.41
2023-02-22T00:33:28.478Z,97587.66
2023-02-22T00:35:56.597Z,97591.34
2023-02-22T00:38:24.940Z,97586.09
2023-02-22T00:40:53.319Z,97594.06
2023-02-22T00:43:22.922Z,97575.19
2023-02-22T00:45:51.057Z,97587.31
2023-02-22T00:48:19.668Z,97594.47
2023-02-22T00:50:49.219Z,97593.66
2023-02-22T00:53:17.867Z,97595.38
2023-02-22T00:55:45.945Z,97592.97
2023-02-22T00:58:14.116Z,97592.94
2023-02-22T01:00:44.361Z,97593.88
2023-02-22T01:03:15.872Z,97591.50
2023-02-22T01:05:44.512Z,97592.66
2023-02-22T01:08:14.510Z,97601.25
2023-02-22T01:10:43.309Z,97595.19
2023-02-22T01:13:12.549Z,97600.47
2023-02-22T01:15:42.828Z,97599.59
2023-02-22T01:18:17.441Z,97599.72
2023-02-22T01:20:48.108Z,97603.25
2023-02-22T01:23:17.520Z,97598.09
2023-02-22T01:25:45.726Z,97598.19
2023-02-22T01:28:15.825Z,97593.88
2023-02-22T01:30:44.017Z,97595.56
2023-02-22T01:33:15.602Z,97594.00
2023-02-22T01:35:46.370Z,97600.22
2023-02-22T01:38:15.312Z,97595.97
2023-02-22T01:40:47.807Z,97588.09
2023-02-22T01:43:19.964Z,97592.47
2023-02-22T01:45:57.297Z,97601.19
2023-02-22T01:48:31.545Z,97595.31
2023-02-22T01:51:02.515Z,97584.88
2023-02-22T01:53:35.706Z,97591.81
2023-02-22T01:56:05.258Z,97592.72
2023-02-22T01:58:36.638Z,97593.63
2023-02-22T02:01:04.936Z,97586.78
2023-02-22T02:03:37.777Z,97592.09
2023-02-22T02:06:11.946Z,97593.97
2023-02-22T02:08:49.858Z,97588.78
2023-02-22T02:11:21.497Z,97585.28
2023-02-22T02:13:52.624Z,97583.59
2023-02-22T02:16:23.091Z,97578.78
2023-02-22T02:18:53.277Z,97588.13
2023-02-22T02:21:50.619Z,97584.72
2023-02-22T02:24:43.336Z,97591.03
2023-02-22T02:27:18.482Z,97585.88
2023-02-22T02:30:19.682Z,97589.31
2023-02-22T02:32:58.789Z,97586.78
2023-02-22T02:35:38.759Z,97584.00
2023-02-22T02:38:16.451Z,97582.28
2023-02-22T02:40:50.101Z,97587.44
2023-02-22T02:43:26.527Z,97580.53
2023-02-22T02:46:00.004Z,97585.78
2023-02-22T02:48:32.218Z,97592.75
2023-02-22T02:51:02.398Z,97590.19
2023-02-22T02:53:35.791Z,97584.00
2023-02-22T02:56:04.597Z,97584.00
2023-02-22T02:58:32.869Z,97579.69
2023-02-22T03:01:05.496Z,97579.69
2023-02-22T03:04:01.150Z,97579.78
2023-02-22T03:07:04.589Z,97577.19
2023-02-22T03:09:48.241Z,97577.25
2023-02-22T03:12:27.794Z,97580.81
2023-02-22T03:15:07.348Z,97573.94
2023-02-22T03:17:46.300Z,97582.56
2023-02-22T03:20:23.692Z,97584.47
2023-02-22T03:22:58.774Z,97589.81
2023-02-22T03:25:34.190Z,97580.19
2023-02-22T03:28:07.395Z,97582.03
2023-02-22T03:30:40.690Z,97587.19
2023-02-22T03:33:12.880Z,97586.50
2023-02-22T03:35:48.523Z,97580.59
2023-02-22T03:38:20.352Z,97585.97
2023-02-22T03:40:54.524Z,97581.78
2023-02-22T03:43:26.950Z,97587.00
2023-02-22T03:45:59.671Z,97585.25
2023-02-22T03:48:37.581Z,97591.47
2023-02-22T03:51:08.615Z,97589.88
2023-02-22T03:53:37.860Z,97587.44
2023-02-22T03:56:12.152Z,97590.13
2023-02-22T03:58:45.522Z,97598.84
2023-02-22T04:01:15.778Z,97602.47
2023-02-22T04:03:44.312Z,97609.47
2023-02-22T04:06:14.643Z,97598.19
2023-02-22T04:08:44.117Z,97598.19
2023-02-22T04:11:12.573Z,97602.53
2023-02-22T04:13:42.355Z,97593.88
2023-02-22T04:16:10.591Z,97599.91
2023-02-22T04:18:38.925Z,97602.56
2023-02-22T04:21:09.212Z,97593.06
2023-02-22T04:23:45.354Z,97593.06
2023-02-22T04:26:14.656Z,97594.00
2023-02-22T04:28:44.930Z,97592.28
2023-02-22T04:31:19.515Z,97599.25
2023-02-22T04:33:47.934Z,97595.00
2023-02-22T04:36:19.721Z,97589.72
2023-02-22T04:38:49.873Z,97581.94
2023-02-22T04:41:19.585Z,97576.03
2023-02-22T04:43:48.453Z,97581.97
2023-02-22T04:46:22.831Z,97583.75
2023-02-22T04:48:51.242Z,97576.84
2023-02-22T04:51:22.527Z,97588.16
2023-02-22T04:54:24.209Z,97589.97
2023-02-22T04:56:53.331Z,97580.41
2023-02-22T04:59:21.508Z,97589.16
2023-02-22T05:01:55.688Z,97572.66
2023-02-22T05:04:23.802Z,97583.22
2023-02-22T05:06:54.112Z,97579.78
2023-02-22T05:09:24.409Z,97576.34
2023-02-22T05:11:52.613Z,97586.94
2023-02-22T05:14:20.732Z,97577.38
2023-02-22T05:16:50.183Z,97579.16
2023-02-22T05:19:18.333Z,97586.13
2023-02-22T05:21:46.483Z,97576.72
2023-02-22T05:24:14.552Z,97582.72
2023-02-22T05:26:44.138Z,97580.34
2023-02-22T05:29:12.763Z,97584.69
2023-02-22T05:31:41.985Z,97566.63
2023-02-22T05:34:10.372Z,97576.16
2023-02-22T05:36:38.475Z,97577.06
2023-02-22T05:39:06.834Z,97577.88
2023-02-22T05:41:34.901Z,97583.97
2023-02-22T05:44:05.082Z,97588.34
2023-02-22T05:46:33.251Z,97584.16
2023-02-22T05:49:01.448Z,97591.94
2023-02-22T05:51:29.627Z,97594.41
2023-02-22T05:53:57.730Z,97598.00
2023-02-22T05:56:30.362Z,97589.31
2023-02-22T05:58:58.730Z,97591.88
2023-02-22T06:01:28.477Z,97594.41
2023-02-22T06:03:56.704Z,97596.16
2023-02-22T06:06:24.805Z,97597.75
2023-02-22T06:08:52.967Z,97602.06
2023-02-22T06:11:21.159Z,97603.69
2023-02-22T06:13:53.171Z,97601.75
2023-02-22T06:16:22.252Z,97605.00
2023-02-22T06:18:51.991Z,97601.16
2023-02-22T06:21:20.179Z,97603.59
2023-02-22T06:23:48.334Z,97609.25
2023-02-22T06:26:17.713Z,97605.53
2023-02-22T06:28:46.506Z,97607.81
2023-02-22T06:31:15.013Z,97604.56
2023-02-22T06:33:43.286Z,97615.38
2023-02-22T06:36:12.869Z,97620.03
2023-02-22T06:38:41.024Z,97624.88
2023-02-22T06:41:10.432Z,97630.66
2023-02-22T06:43:38.651Z,97624.69
2023-02-22T06:46:10.616Z,97627.44
2023-02-22T06:48:40.170Z,97635.31
2023-02-22T06:51:09.467Z,97636.50
2023-02-22T06:53:38.982Z,97639.19
2023-02-22T06:56:07.847Z,97635.22
2023-02-22T06:58:35.944Z,97642.38
2023-02-22T07:01:04.246Z,97643.50
2023-02-22T07:03:32.531Z,97643.16
2023-02-22T07:06:00.745Z,97653.19
2023-02-22T07:08:28.914Z,97646.72
2023-02-22T07:10:58.545Z,97641.84
2023-02-22T07:13:26.702Z,97645.06
2023-02-22T07:15:54.924Z,97642.13
2023-02-22T07:18:24.200Z,97635.75
2023-02-22T07:20:52.326Z,97645.06
2023-02-22T07:23:20.591Z,97642.16
2023-02-22T07:25:49.077Z,97644.97
2023-02-22T07:28:19.122Z,97636.84
2023-02-22T07:30:47.785Z,97632.69
2023-02-22T07:33:16.306Z,97640.16
2023-02-22T07:35:47.482Z,97635.41
2023-02-22T07:38:17.441Z,97637.13
2023-02-22T07:40:47.806Z,97636.59
2023-02-22T07:43:19.376Z,97629.50
2023-02-22T07:45:49.061Z,97629.84
2023-02-22T07:48:18.913Z,97635.91
2023-02-22T07:50:47.718Z,97625.59
2023-02-22T07:53:19.937Z,97625.81
2023-02-22T07:55:51.142Z,97628.31
2023-02-22T07:58:24.740Z,97624.09
2023-02-22T08:00:53.459Z,97615.41
2023-02-22T08:03:23.845Z,97635.06
2023-02-22T08:05:54.347Z,97625.78
2023-02-22T08:08:22.960Z,97620.34
2023-02-22T08:10:52.317Z,97621.41
2023-02-22T08:13:23.351Z,97616.25
2023-02-22T08:15:53.379Z,97619.59
2023-02-22T08:18:22.987Z,97619.50
2023-02-22T08:20:53.188Z,97622.53
2023-02-22T08:23:25.389Z,97621.88
2023-02-22T08:25:54.346Z,97613.44
2023-02-22T08:28:25.783Z,97614.25
2023-02-22T08:30:54.402Z,97611.41
2023-02-22T08:33:23.234Z,97609.56
2023-02-22T08:35:51.904Z,97606.66
2023-02-22T08:38:22.732Z,97603.53
2023-02-22T08:40:51.544Z,97603.13
2023-02-22T08:43:20.500Z,97610.75
2023-02-22T08:45:51.888Z,97613.97
2023-02-22T08:48:21.320Z,97612.25
2023-02-22T08:50:50.041Z,97613.97
2023-02-22T08:53:18.514Z,97608.13
2023-02-22T08:55:46.943Z,97598.59
2023-02-22T08:58:15.320Z,97602.28
2023-02-22T09:00:44.861Z,97603.69
2023-02-22T09:03:16.248Z,97611.59
2023-02-22T09:05:45.407Z,97598.19
2023-02-22T09:08:13.915Z,97594.34
2023-02-22T09:10:42.061Z,97603.25
2023-02-22T09:13:10.478Z,97602.69
2023-02-22T09:15:39.785Z,97595.75
2023-02-22T09:18:09.397Z,97590.69
2023-02-22T09:20:39.014Z,97588.41
2023-02-22T09:23:09.847Z,97587.84
2023-02-22T09:25:38.882Z,97592.28
2023-02-22T09:28:07.187Z,97590.59
2023-02-22T09:30:37.072Z,97587.91
2023-02-22T09:33:10.047Z,97588.19
2023-02-22T09:35:42.569Z,97578.78
2023-02-22T09:38:11.547Z,97578.25
2023-02-22T09:40:45.231Z,97568.97
2023-02-22T09:43:26.232Z,97575.47
2023-02-22T09:46:12.158Z,97578.97
2023-02-22T09:48:52.664Z,97572.03
2023-02-22T09:51:27.472Z,97577.09
2023-02-22T09:54:00.234Z,97585.34
2023-02-22T09:56:31.191Z,97560.47
2023-02-22T09:59:03.876Z,97559.09
2023-02-22T10:01:36.609Z,97568.78
2023-02-22T10:04:12.554Z,97565.16
2023-02-22T10:06:52.660Z,97556.91
2023-02-22T10:09:29.362Z,97556.31
2023-02-22T10:12:00.297Z,97552.94
2023-02-22T10:14:44.500Z,97551.78
2023-02-22T10:17:23.461Z,97553.06
2023-02-22T10:20:06.229Z,97534.91
2023-02-22T10:22:54.223Z,97534.28
2023-02-22T10:25:25.101Z,97543.94
2023-02-22T10:27:58.920Z,97526.22
2023-02-22T10:30:34.344Z,97538.69
2023-02-22T10:33:10.299Z,97528.84
2023-02-22T10:35:41.288Z,97528.31
2023-02-22T10:38:18.113Z,97536.03
2023-02-22T10:40:50.857Z,97530.25
2023-02-22T10:43:19.132Z,97521.53
2023-02-22T10:45:47.390Z,97515.09
2023-02-22T10:48:18.683Z,97505.31
2023-02-22T10:50:47.862Z,97500.91
2023-02-22T10:53:17.781Z,97513.81
2023-02-22T10:56:14.125Z,97500.59
2023-02-22T10:58:51.571Z,97504.56
2023-02-22T11:01:27.425Z,97496.91
2023-02-22T11:04:06.175Z,97491.41
2023-02-22T11:06:35.941Z,97493.44
2023-02-22T11:09:23.567Z,97481.25
2023-02-22T11:12:08.542Z,97469.97
2023-02-22T11:14:36.652Z,97477.19
2023-02-22T11:17:10.755Z,97468.31
2023-02-22T11:19:39.332Z,97456.84
2023-02-22T11:22:14.876Z,97459.41
2023-02-22T11:24:50.935Z,97456.22
2023-02-22T11:27:29.552Z,97456.97
2023-02-22T11:30:08.104Z,97450.97
2023-02-22T11:32:36.625Z,97442.19
2023-02-22T11:35:31.839Z,97440.88
2023-02-22T11:38:13.735Z,97428.03
2023-02-22T11:40:44.011Z,97421.53
2023-02-22T11:43:18.537Z,97417.94
2023-02-22T11:46:03.280Z,97413.94
2023-02-22T11:48:36.778Z,97409.91
2023-02-22T11:51:17.261Z,97405.69
2023-02-22T11:54:00.447Z,97407.00
2023-02-22T11:56:37.975Z,97406.03
2023-02-22T11:59:17.111Z,97389.56
2023-02-22T12:01:51.428Z,97404.44
2023-02-22T12:04:42.313Z,97392.94
2023-02-22T12:07:26.200Z,97387.75
2023-02-22T12:10:05.559Z,97384.88
2023-02-22T12:12:44.146Z,97391.28
2023-02-22T12:15:23.610Z,97395.94
2023-02-22T12:18:00.264Z,97382.53
2023-02-22T12:20:37.279Z,97379.69
2023-02-22T12:23:16.298Z,97381.38
2023-02-22T12:25:58.581Z,97369.00
2023-02-22T12:28:35.933Z,97364.38
2023-02-22T12:31:17.157Z,97362.31
2023-02-22T12:33:54.235Z,97369.97
2023-02-22T12:36:26.787Z,97359.53
2023-02-22T12:39:00.288Z,97353.53
2023-02-22T12:41:35.697Z,97345.75
2023-02-22T12:44:11.066Z,97354.38
2023-02-22T12:46:43.247Z,97343.91
2023-02-22T12:49:18.909Z,97350.41
2023-02-22T12:51:55.001Z,97341.84
2023-02-22T12:54:35.379Z,97332.28
2023-02-22T12:57:09.992Z,97338.44
2023-02-22T12:59:45.356Z,97328.75
2023-02-22T13:02:20.235Z,97331.88
2023-02-22T13:04:48.822Z,97329.53
2023-02-22T13:07:29.590Z,97332.44
2023-02-22T13:10:26.417Z,97328.13
2023-02-22T13:13:04.007Z,97313.81
2023-02-22T13:15:43.017Z,97312.03
2023-02-22T13:18:18.653Z,97305.53
2023-02-22T13:20:54.024Z,97302.97
2023-02-22T13:23:39.189Z,97298.53
2023-02-22T13:26:16.452Z,97292.56
2023-02-22T13:28:48.328Z,97301.25
2023-02-22T13:31:58.469Z,97299.34
2023-02-22T13:34:42.040Z,97304.06
2023-02-22T13:37:26.076Z,97291.09
2023-02-22T13:40:20.130Z,97296.22
2023-02-22T13:43:21.745Z,97303.19
2023-02-22T13:46:24.227Z,97295.66
2023-02-22T13:49:18.577Z,97300.13
2023-02-22T13:51:52.193Z,97284.41
2023-02-22T13:54:27.514Z,97291.72
2023-02-22T13:56:58.308Z,97284.25
2023-02-22T13:59:30.242Z,97290.38
2023-02-22T14:01:59.435Z,97280.66
2023-02-22T14:04:46.846Z,97279.50
2023-02-22T14:07:57.713Z,97281.69
2023-02-22T14:10:48.577Z,97281.16
2023-02-22T14:13:18.334Z,97279.63
2023-02-22T14:16:21.380Z,97274.44
2023-02-22T14:18:52.171Z,97273.88
2023-02-22T14:21:23.466Z,97274.25
2023-02-22T14:23:53.878Z,97273.19
2023-02-22T14:26:27.526Z,97280.81
2023-02-22T14:28:57.868Z,97275.06
2023-02-22T14:31:36.367Z,97279.38
2023-02-22T14:34:11.468Z,97281.28
2023-02-22T14:36:51.707Z,97276.47
2023-02-22T14:39:26.837Z,97278.31
2023-02-22T14:42:01.956Z,97271.09
2023-02-22T14:44:36.546Z,97274.16
2023-02-22T14:47:08.496Z,97269.53
2023-02-22T14:49:41.740Z,97263.75
2023-02-22T14:52:20.977Z,97258.50
2023-02-22T14:55:17.354Z,97278.22
2023-02-22T14:58:01.433Z,97281.09
2023-02-22T15:00:40.141Z,97277.09
2023-02-22T15:03:19.640Z,97270.84
2023-02-22T15:05:49.784Z,97277.31
2023-02-22T15:08:28.130Z,97267.00
2023-02-22T15:10:56.771Z,97262.75
2023-02-22T15:13:27.509Z,97279.75
2023-02-22T15:16:01.381Z,97255.00
2023-02-22T15:18:36.599Z,97273.28
2023-02-22T15:21:10.505Z,97270.56
2023-02-22T15:23:46.813Z,97268.31
2023-02-22T15:26:26.729Z,97265.28
2023-02-22T15:28:56.478Z,97269.03
2023-02-22T15:31:29.212Z,97261.28
2023-02-22T15:33:57.379Z,97266.34
2023-02-22T15:36:28.564Z,97261.91
2023-02-22T15:38:58.295Z,97266.66
2023-02-22T15:41:31.579Z,97268.13
2023-02-22T15:44:17.658Z,97266.03
2023-02-22T15:46:51.103Z,97263.06
2023-02-22T15:49:23.881Z,97260.81
2023-02-22T15:52:05.658Z,97254.97
2023-02-22T15:54:43.684Z,97255.81
2023-02-22T15:57:16.510Z,97260.34
2023-02-22T15:59:50.057Z,97246.97
2023-02-22T16:02:36.045Z,97256.91
2023-02-22T16:05:08.673Z,97256.50
2023-02-22T16:07:45.303Z,97254.09
2023-02-22T16:10:25.691Z,97253.88
2023-02-22T16:13:05.938Z,97260.91
2023-02-22T16:15:35.208Z,97261.75
2023-02-22T16:18:29.997Z,97259.78
2023-02-22T16:21:05.546Z,97263.50
2023-02-22T16:23:45.224Z,97264.41
2023-02-22T16:26:24.702Z,97267.09
2023-02-22T16:28:55.686Z,97260.75
2023-02-22T16:31:26.662Z,97264.63
2023-02-22T16:33:57.016Z,97269.59
2023-02-22T16:36:39.340Z,97270.72
2023-02-22T16:39:09.592Z,97273.53
2023-02-22T16:41:39.215Z,97270.13
2023-02-22T16:44:08.988Z,97277.66
2023-02-22T16:46:38.169Z,97275.22
2023-02-22T16:49:06.883Z,97276.94
2023-02-22T16:51:43.052Z,97279.69
2023-02-22T16:54:14.793Z,97282.69
2023-02-22T16:56:45.383Z,97282.00
2023-02-22T16:59:17.214Z,97277.97
2023-02-22T17:01:45.941Z,97282.81
2023-02-22T17:04:18.255Z,97288.09
2023-02-22T17:06:46.673Z,97281.16
2023-02-22T17:09:16.649Z,97284.72
2023-02-22T17:11:47.356Z,97287.06
2023-02-22T17:14:23.770Z,97285.91
2023-02-22T17:16:52.842Z,97291.59
2023-02-22T17:19:24.525Z,97291.91
2023-02-22T17:21:54.212Z,97286.03
2023-02-22T17:24:29.640Z,97290.31
2023-02-22T17:27:00.370Z,97290.88
2023-02-22T17:29:30.677Z,97284.97
2023-02-22T17:32:00.148Z,97292.59
2023-02-22T17:34:32.852Z,97291.38
2023-02-22T17:37:03.511Z,97293.28
2023-02-22T17:39:33.061Z,97283.66
2023-02-22T17:42:04.942Z,97284.69
2023-02-22T17:44:35.447Z,97283.91
2023-02-22T17:47:04.842Z,97289.66
2023-02-22T17:49:33.549Z,97288.06
2023-02-22T17:52:07.008Z,97282.19
2023-02-22T17:54:36.235Z,97288.22
2023-02-22T17:57:06.810Z,97283.41
2023-02-22T17:59:36.037Z,97276.69
2023-02-22T18:02:09.025Z,97278.75
2023-02-22T18:04:39.814Z,97279.16
2023-02-22T18:07:08.483Z,97282.06
2023-02-22T18:09:38.141Z,97276.72
2023-02-22T18:12:09.365Z,97283.78
2023-02-22T18:14:39.136Z,97275.44
2023-02-22T18:17:08.697Z,97270.09
2023-02-22T18:19:37.826Z,97272.81
2023-02-22T18:22:09.863Z,97281.16
2023-02-22T18:24:38.866Z,97281.88
2023-02-22T18:27:15.405Z,97276.91
2023-02-22T18:29:45.004Z,97279.91
2023-02-22T18:32:15.813Z,97278.31
2023-02-22T18:34:46.024Z,97273.19
2023-02-22T18:37:20.962Z,97284.50
2023-02-22T18:39:51.209Z,97285.94
2023-02-22T18:42:23.805Z,97288.06
2023-02-22T18:44:53.995Z,97285.75
2023-02-22T18:47:24.433Z,97285.84
2023-02-22T18:49:56.043Z,97281.31
2023-02-22T18:52:25.909Z,97291.78
2023-02-22T18:54:55.691Z,97278.94
2023-02-22T18:57:27.147Z,97280.19
2023-02-22T19:00:00.056Z,97278.81
2023-02-22T19:02:30.610Z,97281.94
2023-02-22T19:05:01.638Z,97280.56
2023-02-22T19:07:33.362Z,97277.63
2023-02-22T19:10:03.057Z,97287.69
2023-02-22T19:12:34.579Z,97285.22
2023-02-22T19:15:03.720Z,97279.44
2023-02-22T19:17:40.166Z,97275.03
2023-02-22T19:20:11.469Z,97279.72
2023-02-22T19:22:44.112Z,97283.59
2023-02-22T19:25:13.174Z,97277.78
2023-02-22T19:27:45.016Z,97274.41
2023-02-22T19:30:17.690Z,97285.75
2023-02-22T19:32:48.079Z,97281.84
2023-02-22T19:35:26.763Z,97286.56
2023-02-22T19:37:57.725Z,97289.31
2023-02-22T19:40:27.818Z,97280.72
2023-02-22T19:43:00.347Z,97286.34
2023-02-22T19:45:30.937Z,97288.44
2023-02-22T19:48:00.420Z,97289.59
2023-02-22T19:50:30.900Z,97291.44
2023-02-22T19:53:01.178Z,97295.84
2023-02-22T19:55:32.947Z,97292.88
2023-02-22T19:58:04.469Z,97300.53
2023-02-22T20:00:38.581Z,97301.69
2023-02-22T20:03:12.433Z,97303.81
2023-02-22T20:05:43.538Z,97299.56
2023-02-22T20:08:14.621Z,97293.59
2023-02-22T20:10:44.087Z,97306.09
2023-02-22T20:13:17.675Z,97308.88
2023-02-22T20:15:48.817Z,97307.31
2023-02-22T20:18:22.046Z,97306.03
2023-02-22T20:20:53.874Z,97304.53
2023-02-22T20:23:24.081Z,97301.97
2023-02-22T20:26:04.678Z,97308.66
2023-02-22T20:28:42.858Z,97306.22
2023-02-22T20:31:17.642Z,97303.75
2023-02-22T20:33:51.258Z,97299.53
2023-02-22T20:36:22.814Z,97309.19
2023-02-22T20:38:57.292Z,97304.09
2023-02-22T20:41:29.502Z,97302.56
2023-02-22T20:44:01.513Z,97307.13
2023-02-22T20:46:36.527Z,97306.41
2023-02-22T20:49:13.028Z,97307.19
2023-02-22T20:51:45.039Z,97303.41
2023-02-22T20:54:14.033Z,97306.91
2023-02-22T20:56:46.962Z,97316.81
2023-02-22T20:59:21.186Z,97311.63
2023-02-22T21:01:53.594Z,97319.78
2023-02-22T21:04:25.017Z,97307.56
2023-02-22T21:06:54.342Z,97308.53
2023-02-22T21:09:24.415Z,97313.94
2023-02-22T21:11:54.487Z,97306.44
2023-02-22T21:14:25.944Z,97319.41
2023-02-22T21:16:58.054Z,97310.84
2023-02-22T21:19:27.427Z,97313.72
2023-02-22T21:21:57.290Z,97314.91
2023-02-22T21:24:29.134Z,97304.31
2023-02-22T21:26:59.403Z,97298.53
2023-02-22T21:29:31.543Z,97302.78
2023-02-22T21:32:02.127Z,97306.31
2023-02-22T21:34:34.379Z,97306.56
2023-02-22T21:37:08.531Z,97299.72
2023-02-22T21:39:38.364Z,97309.50
2023-02-22T21:42:07.587Z,97310.47
2023-02-22T21:44:39.350Z,97302.63
2023-02-22T21:47:08.983Z,97299.28
2023-02-22T21:49:38.171Z,97297.69
2023-02-22T21:52:08.080Z,97299.66
2023-02-22T21:54:36.316Z,97302.59
2023-02-22T21:57:06.418Z,97295.78
2023-02-22T21:59:34.790Z,97294.13
2023-02-22T22:02:04.386Z,97295.22
2023-02-22T22:04:35.105Z,97293.53
2023-02-22T22:07:03.999Z,97281.44
2023-02-22T22:09:36.696Z,97285.81
2023-02-22T22:12:06.040Z,97291.88
2023-02-22T22:14:35.858Z,97295.41
2023-02-22T22:17:08.864Z,97281.56
2023-02-22T22:19:40.464Z,97290.22
2023-02-22T22:22:08.966Z,97290.41
2023-02-22T22:24:38.068Z,97285.34
2023-02-22T22:27:09.780Z,97272.41
2023-02-22T22:29:37.877Z,97284.56
2023-02-22T22:32:07.750Z,97271.72
2023-02-22T22:34:38.010Z,97286.38
2023-02-22T22:37:06.311Z,97284.91
2023-02-22T22:39:34.399Z,97287.59
2023-02-22T22:42:02.549Z,97284.19
2023-02-22T22:44:32.955Z,97288.69
2023-02-22T22:47:01.356Z,97287.84
2023-02-22T22:49:32.698Z,97281.88
2023-02-22T22:52:01.022Z,97290.50
2023-02-22T22:54:29.099Z,97281.03
2023-02-22T22:56:57.321Z,97288.09
2023-02-22T22:59:25.545Z,97285.72
2023-02-22T23:01:56.625Z,97280.53
2023-02-22T23:04:25.550Z,97287.56
2023-02-22T23:06:56.607Z,97282.59
2023-02-22T23:09:26.381Z,97286.91
2023-02-22T23:11:56.745Z,97284.28
2023-02-22T23:14:26.736Z,97287.81
2023-02-22T23:17:03.371Z,97282.72
2023-02-22T23:19:32.004Z,97281.25
2023-02-22T23:22:05.327Z,97277.69
2023-02-22T23:24:36.194Z,97283.06
2023-02-22T23:27:07.270Z,97285.13
2023-02-22T23:29:38.048Z,97279.97
2023-02-22T23:32:07.006Z,97283.50
2023-02-22T23:34:36.567Z,97276.69
2023-02-22T23:37:09.954Z,97278.41
2023-02-22T23:39:38.524Z,97273.25
2023-02-22T23:42:08.815Z,97275.22
2023-02-22T23:44:36.999Z,97274.47
2023-02-22T23:47:05.678Z,97268.59
2023-02-22T23:49:38.029Z,97275.53
2023-02-22T23:52:09.472Z,97275.69
2023-02-22T23:54:43.855Z,97275.69
2023-02-22T23:57:12.191Z,97274.06
2023-02-22T23:59:40.922Z,97268.97
